Terminal Aerodrome Forecast
Issued by NWS

Home | Current Version | Previous Version | Text Only | Print | Product List | Glossary On
Versions: 1 2 3 4 5 6 7 8 9 10 11 12 13 14 15 16 17 18 19 20 21 22 23 24 25 26 27 28 29
000
FTUS42 KGSP 301918 AAA
TAFHKY
TAF AMD
KHKY 301918Z 3019/0118 23008KT P6SM VCTS BKN060CB
      TEMPO 3020/3024 VRB10G20KT 4SM TSRA BKN040CB
     FM010100 24005KT P6SM BKN100
     FM011000 25003KT P6SM SCT240
     FM011500 25007KT P6SM SCT200 PROB30 0115/0117 4SM TSRA
      BKN040CB=

USA.gov is the U.S. government's official web portal to all federal, state and local government web resources and services.